Time;durP1;ratioP1;P1;durP2;ratioP2;P2;SDS_P1;SDS_P2;PMS_P1;PMS_P2;Temp;Humidity;BMP_temperature;BMP_pressure;BME280_temperature;BME280_humidity;BME280_pressure;Samples;Min_cycle;Max_cycle;Signal;HPM_P1;HPM_P2
2022/01/04 00:02:09;;;;;;;304.45;146.57;;;5.40;99.90;;;;;;4955422;28;20054;-50
2022/01/04 00:04:34;;;;;;;228.77;114.05;;;5.50;99.90;;;;;;4955522;29;20086;-56
2022/01/04 00:07:00;;;;;;;203.05;102.35;;;5.40;99.90;;;;;;4955466;29;20105;-56
2022/01/04 00:09:26;;;;;;;222.93;107.35;;;5.40;99.90;;;;;;4955600;28;20071;-54
2022/01/04 00:14:18;;;;;;;226.52;107.65;;;5.30;99.90;;;;;;4955405;29;20035;-53
2022/01/04 00:16:44;;;;;;;187.15;91.78;;;5.30;99.90;;;;;;4955701;28;20094;-47
2022/01/04 00:19:10;;;;;;;192.60;89.32;;;5.30;99.90;;;;;;4954795;28;20027;-51
2022/01/04 00:21:37;;;;;;;209.60;94.32;;;5.40;99.90;;;;;;4955447;28;20028;-48
2022/01/04 00:24:04;;;;;;;207.18;93.90;;;5.40;99.90;;;;;;4955363;29;20058;-52
2022/01/04 00:26:30;;;;;;;223.77;103.97;;;5.40;99.90;;;;;;4955441;29;20046;-50
2022/01/04 00:28:56;;;;;;;264.42;120.22;;;5.40;99.90;;;;;;4955247;28;20023;-51
2022/01/04 00:31:22;;;;;;;210.20;94.63;;;5.30;99.90;;;;;;4955368;29;20019;-54
2022/01/04 00:33:48;;;;;;;265.10;121.32;;;5.20;99.90;;;;;;4955498;29;20031;-55
2022/01/04 00:36:14;;;;;;;247.63;114.00;;;5.30;99.90;;;;;;4955260;29;20039;-49
2022/01/04 00:38:40;;;;;;;277.73;122.65;;;5.30;99.90;;;;;;4955366;28;20378;-55
2022/01/04 00:41:06;;;;;;;226.10;108.45;;;5.20;99.90;;;;;;4955097;28;20023;-52
2022/01/04 00:43:32;;;;;;;239.20;106.10;;;5.30;99.90;;;;;;4955101;29;20073;-55
2022/01/04 00:45:59;;;;;;;218.68;100.32;;;5.30;99.90;;;;;;4955123;29;20109;-56
2022/01/04 00:50:52;;;;;;;213.43;99.57;;;5.30;99.90;;;;;;4954829;29;20027;-57
2022/01/04 00:53:18;;;;;;;197.18;96.88;;;5.20;99.90;;;;;;4955322;28;20122;-54
2022/01/04 00:55:44;;;;;;;188.77;91.78;;;5.20;99.90;;;;;;4955005;28;20031;-52
2022/01/04 00:58:10;;;;;;;172.80;85.25;;;5.20;99.90;;;;;;4954943;29;20031;-56
2022/01/04 01:00:36;;;;;;;171.32;82.35;;;5.20;99.90;;;;;;4955285;28;20023;-54
2022/01/04 01:03:02;;;;;;;220.55;106.85;;;5.20;99.90;;;;;;4954942;29;20035;-48
2022/01/04 01:05:29;;;;;;;243.05;117.43;;;5.30;99.90;;;;;;4954595;28;20030;-50
2022/01/04 01:07:56;;;;;;;234.35;115.47;;;5.10;99.90;;;;;;4954807;28;20028;-53
2022/01/04 01:10:41;;;;;;;187.23;92.38;;;4.90;99.90;;;;;;4954989;29;20030;-50
2022/01/04 01:13:07;;;;;;;169.20;80.55;;;4.90;99.90;;;;;;4954813;28;20035;-49
2022/01/04 01:15:34;;;;;;;164.27;79.00;;;4.90;99.90;;;;;;4954796;29;20478;-58
2022/01/04 01:18:00;;;;;;;170.27;79.18;;;5.00;99.90;;;;;;4954879;29;20050;-55
2022/01/04 01:20:25;;;;;;;163.10;77.95;;;5.00;99.90;;;;;;4954554;28;20098;-50
2022/01/04 01:22:52;;;;;;;153.52;75.28;;;5.10;99.90;;;;;;4954819;29;20474;-58
2022/01/04 01:25:17;;;;;;;148.38;68.25;;;5.10;99.90;;;;;;4954715;28;20039;-49
2022/01/04 01:27:44;;;;;;;158.30;77.93;;;5.10;99.90;;;;;;4954665;28;20031;-51
2022/01/04 01:30:11;;;;;;;130.68;65.50;;;5.10;99.90;;;;;;4956132;28;20410;-51
2022/01/04 01:32:37;;;;;;;130.52;62.75;;;5.10;99.90;;;;;;4958638;28;20455;-55
2022/01/04 01:35:03;;;;;;;153.95;71.18;;;5.10;99.90;;;;;;4957987;28;20154;-55
2022/01/04 01:37:29;;;;;;;200.98;95.40;;;5.10;99.90;;;;;;4958515;28;20027;-55
2022/01/04 01:39:54;;;;;;;174.50;83.60;;;5.10;99.90;;;;;;4958204;28;20034;-53
2022/01/04 01:42:20;;;;;;;188.43;85.38;;;5.00;99.90;;;;;;4958153;29;20023;-52
2022/01/04 01:44:46;;;;;;;159.48;80.13;;;4.90;99.90;;;;;;4973065;28;20027;-49
2022/01/04 01:47:12;;;;;;;154.23;76.47;;;4.90;99.90;;;;;;4958518;28;20078;-51
2022/01/04 01:49:37;;;;;;;161.57;79.15;;;5.00;99.90;;;;;;4957728;28;20031;-54
2022/01/04 01:52:04;;;;;;;136.27;67.30;;;5.00;99.90;;;;;;4958127;29;20027;-56
2022/01/04 01:54:29;;;;;;;279.38;133.70;;;5.00;99.90;;;;;;4958042;29;20039;-54
2022/01/04 01:56:55;;;;;;;219.80;106.40;;;4.90;99.90;;;;;;4958006;28;20486;-55
2022/01/04 01:59:21;;;;;;;171.35;86.30;;;4.70;99.90;;;;;;4957673;29;20078;-49
2022/01/04 02:01:46;;;;;;;162.40;84.68;;;4.70;99.90;;;;;;4957725;29;20043;-56
2022/01/04 02:04:12;;;;;;;217.07;107.53;;;4.80;99.90;;;;;;4957627;29;20098;-50
2022/01/04 02:06:38;;;;;;;209.18;100.32;;;4.80;99.90;;;;;;4957627;29;20034;-54
2022/01/04 02:09:05;;;;;;;202.88;103.00;;;4.70;99.90;;;;;;4957653;28;20019;-49
2022/01/04 02:11:32;;;;;;;195.10;95.68;;;4.70;99.90;;;;;;4957691;29;20070;-49
2022/01/04 02:13:59;;;;;;;160.02;79.03;;;4.60;99.90;;;;;;4957386;29;20020;-56
2022/01/04 02:16:26;;;;;;;141.05;75.57;;;4.70;99.90;;;;;;4957815;28;20027;-54
2022/01/04 02:18:58;;;;;;;194.43;92.95;;;4.70;99.90;;;;;;4957297;28;20375;-50
2022/01/04 02:21:24;;;;;;;191.68;90.65;;;4.80;99.90;;;;;;4957425;28;20030;-49
2022/01/04 02:23:50;;;;;;;156.02;75.78;;;4.80;99.90;;;;;;4957563;29;20023;-50
2022/01/04 02:26:15;;;;;;;144.60;72.13;;;4.80;99.90;;;;;;4957415;28;20023;-50
2022/01/04 02:28:43;;;;;;;231.05;106.28;;;4.80;99.90;;;;;;4957539;29;20034;-50
2022/01/04 02:31:08;;;;;;;172.27;85.15;;;4.90;99.90;;;;;;4957456;28;20023;-49
2022/01/04 02:33:34;;;;;;;195.63;94.18;;;4.80;99.90;;;;;;4957399;28;20446;-53
2022/01/04 02:36:00;;;;;;;201.02;92.38;;;4.80;99.90;;;;;;4957278;28;20150;-51
2022/01/04 02:38:25;;;;;;;148.43;74.07;;;4.90;99.90;;;;;;4957277;29;20030;-51
2022/01/04 02:40:51;;;;;;;132.85;69.88;;;4.90;99.90;;;;;;4956755;28;20028;-52
2022/01/04 02:43:17;;;;;;;115.28;59.90;;;4.90;99.90;;;;;;4956474;28;20028;-53
2022/01/04 02:45:43;;;;;;;106.35;56.53;;;4.90;99.90;;;;;;4957158;29;20035;-51
2022/01/04 02:48:08;;;;;;;104.10;51.78;;;4.90;99.90;;;;;;4957057;28;20033;-56
2022/01/04 02:50:34;;;;;;;118.40;58.22;;;4.90;99.90;;;;;;4956924;29;20545;-54
2022/01/04 02:53:00;;;;;;;109.65;57.45;;;4.90;99.90;;;;;;4957079;28;20027;-49
2022/01/04 02:55:26;;;;;;;109.70;57.53;;;5.00;99.90;;;;;;4956727;29;20027;-45
2022/01/04 02:57:52;;;;;;;102.82;52.65;;;5.00;99.90;;;;;;4956790;28;20019;-52
2022/01/04 03:00:18;;;;;;;150.98;75.53;;;5.10;99.90;;;;;;4956630;29;20019;-54
2022/01/04 03:02:44;;;;;;;115.97;56.67;;;4.90;99.90;;;;;;4956445;28;20106;-55
2022/01/04 03:05:10;;;;;;;104.03;53.00;;;4.70;99.90;;;;;;4956574;29;20474;-55
2022/01/04 03:07:36;;;;;;;99.18;50.75;;;4.80;99.90;;;;;;4956481;28;20038;-50
2022/01/04 03:10:04;;;;;;;94.47;49.03;;;4.90;99.90;;;;;;4956553;29;20027;-49
2022/01/04 03:12:30;;;;;;;92.00;46.47;;;5.00;99.90;;;;;;4956790;29;20106;-49
2022/01/04 03:14:56;;;;;;;122.88;62.80;;;5.00;99.90;;;;;;4956881;28;20118;-54
2022/01/04 03:17:21;;;;;;;82.53;42.80;;;5.00;99.90;;;;;;4956209;29;20582;-50
2022/01/04 03:19:47;;;;;;;94.45;46.53;;;5.00;99.90;;;;;;4956368;28;20031;-50
2022/01/04 03:22:13;;;;;;;92.78;47.65;;;4.90;99.90;;;;;;4956381;29;20031;-54
2022/01/04 03:24:39;;;;;;;99.93;51.95;;;4.90;99.90;;;;;;4956324;29;20106;-47
2022/01/04 03:27:05;;;;;;;94.40;47.05;;;4.60;99.90;;;;;;4956272;28;20075;-53
2022/01/04 03:29:31;;;;;;;77.00;40.70;;;4.60;99.90;;;;;;4956141;28;20478;-53
2022/01/04 03:31:58;;;;;;;73.40;38.58;;;4.60;99.90;;;;;;4956173;28;20082;-57
2022/01/04 03:34:24;;;;;;;80.50;40.45;;;4.70;99.90;;;;;;4956373;29;20035;-57
2022/01/04 03:36:50;;;;;;;84.50;43.65;;;4.80;99.90;;;;;;4956026;29;20441;-51
2022/01/04 03:39:17;;;;;;;61.30;34.63;;;4.80;99.90;;;;;;4955931;29;20098;-52
2022/01/04 03:41:44;;;;;;;67.40;36.00;;;4.80;99.90;;;;;;4956304;28;20082;-55
2022/01/04 03:44:18;;;;;;;76.40;39.50;;;4.80;99.90;;;;;;4956074;28;20054;-54
2022/01/04 03:46:44;;;;;;;61.88;32.90;;;4.90;99.90;;;;;;4956148;28;20059;-54
2022/01/04 03:49:10;;;;;;;87.45;41.10;;;4.90;99.90;;;;;;4955861;28;20035;-53
2022/01/04 03:51:36;;;;;;;85.90;39.47;;;4.90;99.90;;;;;;4955860;29;20030;-53
2022/01/04 03:54:02;;;;;;;82.00;39.95;;;4.90;99.90;;;;;;4955779;28;20023;-54
2022/01/04 03:56:28;;;;;;;89.72;41.75;;;4.90;99.90;;;;;;4955724;28;20466;-55
2022/01/04 03:58:54;;;;;;;75.13;38.70;;;4.80;99.90;;;;;;4955817;28;20027;-53
2022/01/04 04:01:20;;;;;;;75.72;39.40;;;4.80;99.90;;;;;;4955446;29;20117;-55
2022/01/04 04:03:46;;;;;;;104.10;47.78;;;4.80;99.90;;;;;;4955869;28;20083;-55
2022/01/04 04:06:11;;;;;;;121.15;57.88;;;4.80;99.90;;;;;;4956132;29;20097;-52
2022/01/04 04:08:37;;;;;;;140.40;63.38;;;4.80;99.90;;;;;;4955661;28;20462;-54
2022/01/04 04:11:04;;;;;;;137.38;65.50;;;4.80;99.90;;;;;;4955480;28;20031;-52
2022/01/04 04:13:29;;;;;;;125.50;61.08;;;4.80;99.90;;;;;;4955368;29;20031;-54
2022/01/04 04:15:55;;;;;;;125.07;64.38;;;4.80;99.90;;;;;;4955552;29;20035;-51
2022/01/04 04:18:21;;;;;;;110.68;52.80;;;4.80;99.90;;;;;;4956031;28;20470;-57
2022/01/04 04:20:47;;;;;;;97.20;47.90;;;4.80;99.90;;;;;;4955465;29;20026;-48
2022/01/04 04:23:13;;;;;;;120.70;56.35;;;4.90;99.90;;;;;;4955644;28;20042;-48
2022/01/04 04:25:39;;;;;;;144.52;66.20;;;4.90;99.90;;;;;;4955205;28;20031;-55
2022/01/04 04:28:05;;;;;;;102.50;51.85;;;4.90;99.90;;;;;;4955067;28;20051;-58
2022/01/04 04:30:31;;;;;;;93.93;47.33;;;4.80;99.90;;;;;;4955548;28;20027;-56
2022/01/04 04:32:57;;;;;;;99.85;51.03;;;4.80;99.90;;;;;;4955197;29;20510;-50
2022/01/04 04:35:23;;;;;;;85.40;41.70;;;4.80;99.90;;;;;;4955455;28;20039;-57
2022/01/04 04:37:48;;;;;;;102.47;51.60;;;4.80;99.90;;;;;;4955462;28;20030;-47
2022/01/04 04:40:14;;;;;;;89.80;43.30;;;4.90;99.90;;;;;;4955090;29;20145;-50
2022/01/04 04:42:40;;;;;;;84.78;42.35;;;4.80;99.90;;;;;;4955083;29;20023;-54
2022/01/04 04:45:07;;;;;;;85.18;45.83;;;4.90;99.90;;;;;;4955104;29;20031;-50
2022/01/04 04:47:33;;;;;;;75.78;39.05;;;4.90;99.90;;;;;;4955077;29;20371;-54
2022/01/04 04:50:00;;;;;;;85.00;45.08;;;4.90;99.90;;;;;;4955166;29;20034;-52
2022/01/04 04:52:25;;;;;;;65.55;36.80;;;4.90;99.90;;;;;;4955233;29;20035;-51
2022/01/04 04:54:51;;;;;;;69.68;37.63;;;4.80;99.90;;;;;;4955101;29;20375;-55
2022/01/04 04:57:17;;;;;;;81.93;40.78;;;4.90;99.90;;;;;;4953605;28;20038;-53
2022/01/04 04:59:43;;;;;;;73.22;37.08;;;4.90;99.90;;;;;;4955134;29;20058;-52
2022/01/04 05:02:08;;;;;;;64.32;34.50;;;4.90;99.90;;;;;;4954872;28;20130;-50
2022/01/04 05:04:35;;;;;;;74.22;37.42;;;4.90;99.90;;;;;;4955365;28;20490;-51
2022/01/04 05:07:01;;;;;;;123.72;58.72;;;4.90;99.90;;;;;;4959037;29;20037;-50
2022/01/04 05:09:27;;;;;;;127.45;57.35;;;4.90;99.90;;;;;;4959077;28;20019;-56
2022/01/04 05:11:52;;;;;;;152.77;67.15;;;4.80;99.90;;;;;;4958768;28;20022;-57
2022/01/04 05:14:18;;;;;;;118.80;55.78;;;4.80;99.90;;;;;;4958639;28;20445;-53
2022/01/04 05:16:44;;;;;;;106.35;51.45;;;4.70;99.90;;;;;;4958681;29;20024;-58
2022/01/04 05:19:10;;;;;;;117.55;52.95;;;4.70;99.90;;;;;;4958572;29;20023;-53
2022/01/04 05:21:36;;;;;;;112.75;53.58;;;4.80;99.90;;;;;;4958849;29;20062;-55
2022/01/04 05:24:02;;;;;;;214.82;101.88;;;4.80;99.90;;;;;;4958538;29;20024;-57
2022/01/04 05:26:28;;;;;;;234.77;105.72;;;4.70;99.90;;;;;;4958202;28;20062;-54
2022/01/04 05:28:53;;;;;;;156.68;76.93;;;4.60;99.90;;;;;;4958465;28;20066;-54
2022/01/04 05:31:19;;;;;;;147.30;75.95;;;4.60;99.90;;;;;;4958430;29;20074;-51
2022/01/04 05:33:45;;;;;;;229.15;109.63;;;4.70;99.90;;;;;;4958654;28;20044;-57
2022/01/04 05:36:11;;;;;;;248.70;119.18;;;4.60;99.90;;;;;;4958388;28;20386;-56
2022/01/04 05:38:36;;;;;;;266.73;129.93;;;4.60;99.90;;;;;;4958201;29;20106;-52
2022/01/04 05:41:02;;;;;;;296.88;146.18;;;4.50;99.90;;;;;;4958254;28;20110;-53
2022/01/04 05:43:28;;;;;;;292.40;147.27;;;4.50;99.90;;;;;;4958336;28;20051;-54
2022/01/04 05:45:53;;;;;;;251.23;135.45;;;4.50;99.90;;;;;;4958383;29;20039;-51
2022/01/04 05:48:20;;;;;;;276.48;138.07;;;4.50;99.90;;;;;;4958140;29;20019;-54
2022/01/04 05:50:47;;;;;;;496.48;244.43;;;4.50;99.90;;;;;;4957949;29;20023;-52
2022/01/04 05:53:13;;;;;;;420.85;209.27;;;4.40;99.90;;;;;;4957981;28;20063;-56
2022/01/04 05:55:39;;;;;;;363.27;184.82;;;4.30;99.90;;;;;;4957728;29;20055;-50
2022/01/04 05:58:05;;;;;;;340.83;165.65;;;4.30;99.90;;;;;;4958085;29;20038;-55
2022/01/04 06:00:31;;;;;;;354.08;168.48;;;4.30;99.90;;;;;;4960076;28;20039;-55
2022/01/04 06:03:00;;;;;;;268.02;133.65;;;4.40;99.90;;;;;;4976739;28;20137;-53
2022/01/04 06:05:29;;;;;;;215.77;110.10;;;4.40;99.90;;;;;;4976871;28;20030;-47
2022/01/04 06:07:56;;;;;;;191.40;96.75;;;4.40;99.90;;;;;;4976755;28;20031;-45
2022/01/04 06:10:22;;;;;;;151.35;77.28;;;4.50;99.90;;;;;;4974981;28;20047;-44
2022/01/04 06:15:16;;;;;;;126.00;64.00;;;4.50;99.90;;;;;;4961108;28;20117;-44
2022/01/04 06:17:48;;;;;;;123.05;58.72;;;4.60;99.90;;;;;;4962244;28;20037;-47
2022/01/04 06:20:24;;;;;;;111.35;56.25;;;4.60;99.90;;;;;;4960318;28;20039;-44
2022/01/04 06:22:54;;;;;;;107.55;51.97;;;4.60;99.90;;;;;;4963175;28;20035;-46
2022/01/04 06:25:21;;;;;;;137.57;66.97;;;4.70;99.90;;;;;;4964547;28;20037;-47
2022/01/04 06:27:50;;;;;;;111.32;53.95;;;4.70;99.90;;;;;;4970196;28;20031;-46
2022/01/04 06:30:18;;;;;;;95.70;50.38;;;4.70;99.90;;;;;;4959838;28;20081;-49
2022/01/04 06:32:45;;;;;;;114.05;57.55;;;4.70;99.90;;;;;;4967349;28;20122;-45
2022/01/04 06:35:13;;;;;;;122.72;57.95;;;4.80;99.90;;;;;;4962287;28;20054;-44
2022/01/04 06:37:42;;;;;;;145.45;71.47;;;4.80;99.90;;;;;;4965845;28;20035;-44
2022/01/04 06:40:10;;;;;;;211.90;104.63;;;4.80;99.90;;;;;;4956710;29;20527;-46
2022/01/04 06:42:36;;;;;;;137.40;71.07;;;4.70;99.90;;;;;;4972035;28;20540;-44
2022/01/04 06:45:02;;;;;;;161.20;81.90;;;4.70;99.90;;;;;;4974157;28;20023;-45
2022/01/04 06:47:27;;;;;;;140.85;70.93;;;4.80;99.90;;;;;;4975763;28;20039;-44
2022/01/04 06:49:53;;;;;;;129.35;64.65;;;4.80;99.90;;;;;;4975649;28;20351;-46
2022/01/04 06:52:19;;;;;;;129.35;63.38;;;4.80;99.90;;;;;;4975222;28;20058;-50
2022/01/04 06:54:45;;;;;;;137.20;67.72;;;4.80;99.90;;;;;;4974989;28;20030;-46
2022/01/04 06:57:10;;;;;;;112.10;54.33;;;4.90;99.90;;;;;;4976088;28;20023;-44
2022/01/04 06:59:36;;;;;;;119.10;60.88;;;4.90;99.90;;;;;;4976040;28;20026;-44
2022/01/04 07:02:02;;;;;;;103.05;52.65;;;4.90;99.90;;;;;;4975819;28;20138;-48
2022/01/04 07:04:28;;;;;;;95.82;49.58;;;4.90;99.90;;;;;;4975807;28;20058;-48
2022/01/04 07:06:54;;;;;;;116.10;57.70;;;4.90;99.90;;;;;;4968292;28;20070;-44
2022/01/04 07:09:20;;;;;;;103.40;53.67;;;5.00;99.90;;;;;;4962921;28;20035;-49
2022/01/04 07:11:45;;;;;;;89.60;47.20;;;5.00;99.90;;;;;;4964316;28;20034;-47
2022/01/04 07:14:11;;;;;;;99.47;52.88;;;5.10;99.90;;;;;;4967189;28;20596;-46
2022/01/04 07:16:37;;;;;;;97.65;50.15;;;5.10;99.90;;;;;;4970367;28;20126;-47
2022/01/04 07:19:03;;;;;;;111.15;57.35;;;5.20;99.90;;;;;;4975689;28;20078;-48
2022/01/04 07:21:28;;;;;;;104.30;53.85;;;5.20;99.90;;;;;;4975690;28;20030;-46
2022/01/04 07:23:55;;;;;;;171.57;82.35;;;5.30;99.90;;;;;;4975317;28;20100;-47
2022/01/04 07:26:22;;;;;;;137.20;70.53;;;5.40;99.90;;;;;;4975670;28;20031;-47
2022/01/04 07:28:48;;;;;;;113.72;62.05;;;5.40;99.90;;;;;;4973825;28;20462;-49
2022/01/04 07:31:15;;;;;;;236.75;123.18;;;5.50;99.90;;;;;;4970404;28;20510;-46
2022/01/04 07:33:42;;;;;;;191.32;103.40;;;5.60;99.90;;;;;;4972703;28;20042;-58
2022/01/04 07:36:08;;;;;;;450.90;244.30;;;5.70;99.90;;;;;;4965376;28;20125;-49
2022/01/04 07:38:35;;;;;;;520.05;298.83;;;5.80;99.90;;;;;;4968929;28;20042;-53
2022/01/04 07:41:01;;;;;;;434.15;250.88;;;5.70;99.90;;;;;;4970690;28;20172;-48
2022/01/04 07:43:26;;;;;;;472.17;258.45;;;5.60;99.90;;;;;;4969968;28;20133;-56
2022/01/04 07:45:53;;;;;;;559.03;316.95;;;5.70;99.90;;;;;;4968750;28;20041;-50
2022/01/04 07:48:19;;;;;;;489.38;275.13;;;5.80;99.90;;;;;;4968956;28;20030;-50
2022/01/04 07:50:45;;;;;;;434.08;243.63;;;5.90;99.90;;;;;;4971017;28;20121;-54
2022/01/04 07:53:11;;;;;;;388.08;210.75;;;6.20;99.90;;;;;;4973157;28;20119;-49
2022/01/04 07:55:36;;;;;;;351.60;189.85;;;6.60;99.90;;;;;;4972456;28;20165;-52
2022/01/04 07:58:02;;;;;;;303.65;158.05;;;6.90;99.90;;;;;;4974227;28;20034;-51
2022/01/04 08:00:28;;;;;;;233.85;130.35;;;7.50;99.90;;;;;;4974629;28;20026;-52
2022/01/04 08:02:55;;;;;;;187.23;102.18;;;8.00;99.90;;;;;;4966158;28;20494;-51
2022/01/04 08:05:23;;;;;;;180.48;98.35;;;8.60;99.90;;;;;;4954373;29;20482;-51
2022/01/04 08:07:51;;;;;;;155.27;83.13;;;8.80;99.90;;;;;;4970392;28;20058;-56
2022/01/04 08:10:17;;;;;;;143.30;79.55;;;8.90;99.90;;;;;;4973452;28;20082;-54
2022/01/04 08:12:44;;;;;;;136.43;72.55;;;9.00;99.90;;;;;;4967338;28;20041;-55
2022/01/04 08:15:11;;;;;;;135.93;76.57;;;8.90;99.90;;;;;;4969909;28;20722;-55
2022/01/04 08:17:38;;;;;;;125.90;71.63;;;8.80;99.90;;;;;;4969557;28;20027;-55
2022/01/04 08:20:06;;;;;;;110.88;65.57;;;8.80;99.90;;;;;;4952771;28;20074;-57
2022/01/04 08:22:32;;;;;;;105.00;59.67;;;8.90;99.90;;;;;;4952250;29;20020;-57
2022/01/04 08:25:03;;;;;;;102.95;58.40;;;9.00;99.90;;;;;;4965211;28;20109;-58
2022/01/04 08:27:29;;;;;;;101.80;57.58;;;9.00;99.90;;;;;;4972484;28;20030;-53
2022/01/04 08:29:56;;;;;;;102.97;57.47;;;9.00;99.90;;;;;;4971912;28;20425;-55
2022/01/04 08:32:22;;;;;;;96.13;54.05;;;9.10;99.90;;;;;;4973858;28;20030;-53
2022/01/04 08:34:48;;;;;;;123.90;71.57;;;9.30;99.90;;;;;;4973529;28;20026;-48
2022/01/04 08:37:14;;;;;;;100.10;56.28;;;9.30;99.90;;;;;;4970537;28;20031;-52
2022/01/04 08:39:40;;;;;;;97.00;55.15;;;9.20;99.90;;;;;;4961016;28;20031;-56
2022/01/04 08:42:06;;;;;;;100.45;57.25;;;9.40;99.90;;;;;;4954224;28;20038;-51
2022/01/04 08:44:33;;;;;;;103.90;60.70;;;9.40;99.90;;;;;;4953449;28;20034;-54
2022/01/04 08:46:59;;;;;;;138.82;80.60;;;9.20;99.90;;;;;;4953244;28;20024;-55
2022/01/04 08:49:25;;;;;;;120.18;67.05;;;9.30;99.90;;;;;;4954677;28;20454;-52
2022/01/04 08:51:51;;;;;;;102.78;59.83;;;9.50;99.90;;;;;;4954970;28;20063;-53
2022/01/04 08:54:17;;;;;;;98.35;58.22;;;9.50;99.90;;;;;;4954252;28;20061;-58
2022/01/04 08:56:43;;;;;;;111.45;63.35;;;9.60;99.90;;;;;;4955108;28;20033;-52
2022/01/04 08:59:10;;;;;;;98.82;58.35;;;9.50;99.90;;;;;;4954087;28;20091;-49
2022/01/04 09:01:37;;;;;;;98.88;55.80;;;9.80;99.90;;;;;;4957540;28;20047;-50
2022/01/04 09:04:03;;;;;;;86.32;50.95;;;10.10;99.90;;;;;;4972863;28;20031;-55
2022/01/04 09:06:30;;;;;;;92.95;53.72;;;10.30;99.90;;;;;;4973642;28;20496;-58
2022/01/04 09:08:56;;;;;;;87.20;50.67;;;10.30;98.60;;;;;;4971476;28;20027;-54
2022/01/04 09:11:23;;;;;;;77.97;48.20;;;10.30;99.90;;;;;;4973192;28;20039;-54
2022/01/04 09:13:51;;;;;;;84.93;51.70;;;10.20;99.90;;;;;;4973787;28;20027;-50
2022/01/04 09:19:01;;;;;;;72.55;46.67;;;10.20;99.90;;;;;;4958958;28;20042;-55
2022/01/04 09:21:29;;;;;;;67.78;43.58;;;10.10;99.90;;;;;;4965374;28;20027;-59
2022/01/04 09:23:58;;;;;;;85.40;50.40;;;10.00;99.90;;;;;;4972748;28;20069;-58
2022/01/04 09:26:28;;;;;;;74.32;46.42;;;10.10;99.90;;;;;;4959721;28;20166;-57
2022/01/04 09:28:55;;;;;;;85.07;51.63;;;10.20;99.90;;;;;;4960612;28;20067;-58
2022/01/04 09:31:25;;;;;;;100.10;58.33;;;10.30;99.90;;;;;;4961026;28;20489;-54
2022/01/04 09:33:56;;;;;;;91.03;54.70;;;10.40;99.90;;;;;;4971230;28;20509;-61
2022/01/04 09:36:22;;;;;;;74.80;51.15;;;10.40;99.90;;;;;;4987378;28;20374;-53
2022/01/04 09:38:48;;;;;;;73.65;49.08;;;10.50;99.50;;;;;;4960220;28;20043;-54
2022/01/04 09:41:14;;;;;;;87.03;53.38;;;10.70;99.60;;;;;;4966379;28;20110;-55
2022/01/04 09:43:40;;;;;;;101.35;57.38;;;10.90;97.90;;;;;;4969386;28;20101;-52
2022/01/04 09:46:08;;;;;;;115.68;68.18;;;11.00;97.90;;;;;;4972144;28;20031;-51
2022/01/04 09:48:34;;;;;;;117.93;67.45;;;11.00;97.20;;;;;;4959976;28;20041;-58
2022/01/04 09:51:00;;;;;;;135.10;77.32;;;11.00;98.30;;;;;;4973061;28;20019;-56
2022/01/04 09:53:27;;;;;;;167.85;99.47;;;11.00;98.40;;;;;;4974508;28;20024;-54
2022/01/04 09:55:56;;;;;;;148.27;95.15;;;11.00;98.90;;;;;;4975271;28;20117;-57
2022/01/04 09:58:24;;;;;;;139.82;90.03;;;11.00;99.10;;;;;;4975806;28;20035;-54
2022/01/04 10:00:51;;;;;;;165.65;107.35;;;11.00;99.90;;;;;;4975781;28;20556;-56
2022/01/04 10:03:22;;;;;;;166.98;104.68;;;11.10;99.00;;;;;;4975401;28;20031;-56
2022/01/04 10:05:48;;;;;;;175.02;110.95;;;11.20;99.20;;;;;;4976001;28;20150;-59
2022/01/04 10:08:15;;;;;;;191.45;113.85;;;11.30;99.90;;;;;;4974144;28;20553;-56
2022/01/04 10:10:42;;;;;;;185.77;115.75;;;11.30;99.90;;;;;;4974161;28;20019;-53
2022/01/04 10:13:15;;;;;;;182.43;113.95;;;11.40;99.70;;;;;;4975348;28;20033;-55
2022/01/04 10:15:49;;;;;;;158.80;102.47;;;11.40;99.90;;;;;;4974516;28;20117;-54
2022/01/04 10:18:23;;;;;;;151.52;98.90;;;11.50;99.90;;;;;;4975387;28;20049;-57
2022/01/04 10:21:09;;;;;;;;;;;11.60;99.50;;;;;;4976355;28;20110;-54
2022/01/04 10:23:44;;;;;;;139.10;88.95;;;11.70;98.60;;;;;;4974541;28;20220;-51
2022/01/04 10:26:10;;;;;;;135.23;90.10;;;11.70;98.60;;;;;;4976269;28;20031;-54
2022/01/04 10:28:39;;;;;;;150.07;96.03;;;11.70;98.10;;;;;;4970441;28;20027;-58
2022/01/04 10:31:14;;;;;;;143.75;93.03;;;11.80;98.00;;;;;;4963467;28;20035;-54
2022/01/04 10:33:40;;;;;;;178.07;108.38;;;11.90;98.80;;;;;;4966003;28;20019;-51
2022/01/04 10:36:14;;;;;;;148.77;94.28;;;11.90;98.60;;;;;;4974396;28;20118;-53
2022/01/04 10:38:43;;;;;;;190.85;114.50;;;11.90;98.10;;;;;;4975232;28;20037;-57
2022/01/04 10:41:26;;;;;;;160.85;100.40;;;11.90;98.30;;;;;;4975954;28;20494;-51
2022/01/04 10:43:59;;;;;;;152.95;94.15;;;11.80;98.90;;;;;;4970381;28;20494;-57
2022/01/04 10:46:41;;;;;;;143.07;90.30;;;11.90;98.70;;;;;;4956836;28;20027;-49
2022/01/04 10:49:24;;;;;;;149.75;91.93;;;12.00;97.90;;;;;;4973721;28;20051;-53
2022/01/04 10:52:08;;;;;;;118.53;77.43;;;12.00;98.60;;;;;;4964301;28;20023;-50
2022/01/04 10:54:34;;;;;;;153.60;94.57;;;12.10;98.00;;;;;;4973710;28;20041;-53
2022/01/04 10:57:08;;;;;;;151.25;93.15;;;12.10;98.40;;;;;;4975073;28;20022;-55
2022/01/04 10:59:35;;;;;;;124.00;83.85;;;12.10;98.70;;;;;;4974446;28;20029;-55
2022/01/04 11:02:01;;;;;;;131.07;81.78;;;12.10;99.40;;;;;;4974823;28;20401;-54
2022/01/04 11:04:27;;;;;;;119.65;77.38;;;12.20;99.10;;;;;;4975564;28;20079;-59
2022/01/04 11:07:01;;;;;;;160.52;97.28;;;12.20;99.20;;;;;;4976238;28;20481;-52
2022/01/04 11:09:27;;;;;;;151.00;93.28;;;12.30;99.90;;;;;;4975788;28;20121;-52
2022/01/04 11:11:53;;;;;;;147.88;92.10;;;12.30;99.00;;;;;;4976135;28;20046;-56
2022/01/04 11:14:19;;;;;;;138.05;93.03;;;12.20;99.20;;;;;;4973984;28;20109;-50
2022/01/04 11:16:45;;;;;;;165.05;103.25;;;12.20;99.90;;;;;;4974908;28;20090;-53
2022/01/04 11:19:11;;;;;;;167.02;101.50;;;12.30;99.80;;;;;;4973383;28;20035;-52
2022/01/04 11:21:41;;;;;;;147.15;92.05;;;12.30;99.90;;;;;;4974009;28;20548;-56
2022/01/04 11:24:12;;;;;;;145.00;91.38;;;12.30;99.90;;;;;;4974460;28;20050;-55
2022/01/04 11:26:43;;;;;;;160.10;95.95;;;12.30;99.90;;;;;;4974844;28;20378;-56
2022/01/04 11:29:08;;;;;;;133.63;86.15;;;12.40;99.90;;;;;;4975104;28;20019;-48
2022/01/04 11:32:02;;;;;;;183.82;110.18;;;12.40;99.10;;;;;;4974993;28;20019;-54
2022/01/04 11:34:42;;;;;;;181.55;108.35;;;12.50;99.00;;;;;;4975503;28;20025;-57
2022/01/04 11:37:17;;;;;;;177.10;107.32;;;12.40;99.90;;;;;;4975204;28;20110;-54
2022/01/04 11:39:43;;;;;;;260.92;153.75;;;12.50;99.90;;;;;;4975357;28;20110;-52
2022/01/04 11:42:30;;;;;;;280.27;152.77;;;12.40;99.90;;;;;;4975693;28;20023;-56
2022/01/04 11:44:56;;;;;;;213.25;133.75;;;12.40;99.90;;;;;;4963590;28;20125;-52
2022/01/04 11:47:28;;;;;;;261.60;155.68;;;12.40;99.90;;;;;;4974337;28;20106;-56
2022/01/04 11:50:20;;;;;;;242.70;143.00;;;12.50;99.90;;;;;;4973812;28;20038;-55
2022/01/04 11:52:59;;;;;;;232.80;139.77;;;12.60;99.90;;;;;;4973155;28;20041;-57
2022/01/04 11:55:30;;;;;;;263.90;156.40;;;12.60;99.90;;;;;;4974294;28;20202;-57
2022/01/04 11:58:03;;;;;;;245.82;153.70;;;12.70;99.90;;;;;;4974126;28;20068;-59
2022/01/04 12:00:31;;;;;;;;;;;12.80;99.90;;;;;;4973353;28;20019;-51
2022/01/04 12:03:04;;;;;;;206.45;125.65;;;12.90;99.90;;;;;;4972654;28;20316;-59
2022/01/04 12:05:31;;;;;;;197.85;126.22;;;13.00;99.90;;;;;;4972808;28;20022;-58
2022/01/04 12:08:13;;;;;;;183.07;119.88;;;13.20;99.90;;;;;;4973034;28;20042;-55
2022/01/04 12:10:40;;;;;;;178.70;116.93;;;13.40;99.90;;;;;;4972420;28;20026;-52
2022/01/04 12:13:58;;;;;;;181.70;116.95;;;13.60;99.90;;;;;;4962226;28;20051;-54
2022/01/04 12:16:32;;;;;;;211.25;139.95;;;13.80;99.90;;;;;;4962226;28;20077;-58
2022/01/04 12:18:58;;;;;;;209.38;130.30;;;13.90;99.90;;;;;;4964794;28;20034;-53
2022/01/04 12:21:30;;;;;;;240.57;147.43;;;13.90;99.20;;;;;;4965816;28;20031;-54
2022/01/04 12:23:57;;;;;;;218.38;134.35;;;14.00;99.30;;;;;;4964947;28;20039;-55
2022/01/04 12:26:28;;;;;;;209.73;131.60;;;14.00;98.10;;;;;;4965288;28;20061;-59
2022/01/04 12:28:58;;;;;;;246.70;151.95;;;14.10;98.90;;;;;;4973512;28;20426;-56
2022/01/04 12:31:25;;;;;;;201.73;133.25;;;14.10;97.70;;;;;;4970212;28;20505;-52
2022/01/04 12:33:52;;;;;;;250.63;156.05;;;14.10;97.10;;;;;;4973492;28;20080;-51
2022/01/04 12:36:40;;;;;;;276.83;169.02;;;14.20;96.70;;;;;;4974311;28;20030;-59